Time;durP1;ratioP1;P1;durP2;ratioP2;P2;SDS_P1;SDS_P2;PMS_P1;PMS_P2;Temp;Humidity;BMP_temperature;BMP_pressure;BME280_temperature;BME280_humidity;BME280_pressure;Samples;Min_cycle;Max_cycle;Signal;HPM_P1;HPM_P2
2021/07/27 00:00:23;;;;;;;;;;;16.70;99.90;;;;;;5095788;28;20299;-82
2021/07/27 00:02:49;;;;;;;;;;;16.70;99.90;;;;;;5095403;28;20264;-82
2021/07/27 00:05:16;;;;;;;;;;;16.70;99.90;;;;;;5095345;28;20279;-82
2021/07/27 00:07:43;;;;;;;;;;;16.70;99.90;;;;;;5095408;28;19924;-82
2021/07/27 00:10:12;;;;;;;;;;;16.70;99.90;;;;;;5095453;28;19935;-82
2021/07/27 00:12:39;;;;;;;;;;;16.70;99.90;;;;;;5095363;28;19924;-82
2021/07/27 00:15:06;;;;;;;;;;;16.70;99.90;;;;;;5095432;28;19924;-82
2021/07/27 00:17:33;;;;;;;;;;;16.70;99.90;;;;;;5095354;28;19924;-82
2021/07/27 00:20:00;;;;;;;;;;;16.70;99.90;;;;;;5095274;28;20285;-81
2021/07/27 00:22:27;;;;;;;;;;;16.70;99.90;;;;;;5095524;28;19924;-75
2021/07/27 00:24:54;;;;;;;;;;;16.70;99.90;;;;;;5095077;28;20367;-84
2021/07/27 00:27:22;;;;;;;;;;;16.70;99.90;;;;;;5095247;28;20247;-82
2021/07/27 00:29:49;;;;;;;;;;;16.60;99.90;;;;;;5094447;28;19924;-81
2021/07/27 00:32:15;;;;;;;;;;;16.60;99.90;;;;;;5095076;28;19924;-82
2021/07/27 00:34:42;;;;;;;;;;;16.60;99.90;;;;;;5095133;28;19928;-82
2021/07/27 00:37:16;;;;;;;;;;;16.50;99.90;;;;;;5095272;28;19924;-82
2021/07/27 00:39:43;;;;;;;;;;;16.50;99.90;;;;;;5095142;28;20270;-82
2021/07/27 00:42:10;;;;;;;;;;;16.50;99.90;;;;;;5095195;28;20265;-82
2021/07/27 00:44:38;;;;;;;;;;;16.60;99.90;;;;;;5095224;28;19924;-82
2021/07/27 00:47:05;;;;;;;;;;;16.60;99.90;;;;;;5095008;28;19924;-83
2021/07/27 00:49:32;;;;;;;;;;;16.60;99.90;;;;;;5095131;28;19928;-82
2021/07/27 00:51:59;;;;;;;;;;;16.70;99.90;;;;;;5094863;28;20360;-82
2021/07/27 00:54:26;;;;;;;;;;;16.70;99.90;;;;;;5094714;28;19935;-82
2021/07/27 00:56:53;;;;;;;;;;;16.70;99.90;;;;;;5094758;28;19928;-84
2021/07/27 00:59:20;;;;;;;;;;;16.80;99.90;;;;;;5094788;28;19936;-83
2021/07/27 01:01:48;;;;;;;;;;;16.80;99.90;;;;;;5094751;28;20371;-84
2021/07/27 01:04:15;;;;;;;;;;;16.80;99.90;;;;;;5094753;28;19924;-84
2021/07/27 01:06:42;;;;;;;;;;;16.90;99.90;;;;;;5094897;28;19945;-84
2021/07/27 01:09:08;;;;;;;;;;;16.90;99.90;;;;;;5094895;28;19924;-84
2021/07/27 01:11:39;;;;;;;;;;;16.90;99.90;;;;;;5094699;28;19924;-84
2021/07/27 01:14:06;;;;;;;;;;;17.00;99.90;;;;;;5094541;28;19930;-84
2021/07/27 01:16:35;;;;;;;;;;;17.00;99.90;;;;;;5094733;28;19934;-84
2021/07/27 01:19:11;;;;;;;;;;;17.00;99.90;;;;;;5094905;28;19924;-83
2021/07/27 01:38:14;;;;;;;;;;;16.90;99.90;;;;;;5094696;28;19973;-82
2021/07/27 01:40:49;;;;;;;;;;;16.90;99.90;;;;;;5096040;28;20273;-82
2021/07/27 01:43:19;;;;;;;;;;;16.80;99.90;;;;;;5098123;28;20418;-82
2021/07/27 01:45:45;;;;;;;;;;;16.80;99.90;;;;;;5098565;28;20249;-82
2021/07/27 01:48:13;;;;;;;;;;;16.70;99.90;;;;;;5098260;28;20015;-82
2021/07/27 01:50:40;;;;;;;;;;;16.70;99.90;;;;;;5097926;28;20342;-82
2021/07/27 01:53:18;;;;;;;;;;;16.60;99.90;;;;;;5097713;28;19924;-82
2021/07/27 01:55:46;;;;;;;;;;;16.60;99.90;;;;;;5098015;28;19924;-82
2021/07/27 01:58:13;;;;;;;;;;;16.60;99.90;;;;;;5097756;28;19924;-82
2021/07/27 02:00:40;;;;;;;;;;;16.60;99.90;;;;;;5097740;28;19924;-83
2021/07/27 02:03:07;;;;;;;;;;;16.60;99.90;;;;;;5097690;28;19924;-82
2021/07/27 02:05:33;;;;;;;;;;;16.60;99.90;;;;;;5097818;28;19934;-82
2021/07/27 02:08:00;;;;;;;;;;;16.70;99.90;;;;;;5097634;28;19967;-82
2021/07/27 02:10:28;;;;;;;;;;;16.70;99.90;;;;;;5097566;28;19924;-82
2021/07/27 02:13:01;;;;;;;;;;;16.70;99.90;;;;;;5097389;28;19931;-82
2021/07/27 02:15:36;;;;;;;;;;;16.70;99.90;;;;;;5097517;28;19924;-82
2021/07/27 02:18:03;;;;;;;;;;;16.70;99.90;;;;;;5097622;28;19932;-82
2021/07/27 02:20:30;;;;;;;;;;;16.70;99.90;;;;;;5097373;28;19924;-82
2021/07/27 02:22:57;;;;;;;;;;;16.70;99.90;;;;;;5097326;28;20369;-82
2021/07/27 02:25:24;;;;;;;;;;;16.60;99.90;;;;;;5097172;28;19925;-83
2021/07/27 02:27:50;;;;;;;;;;;16.70;99.90;;;;;;5097363;28;19932;-82
2021/07/27 02:30:19;;;;;;;;;;;16.70;99.90;;;;;;5097377;28;19924;-82
2021/07/27 02:32:46;;;;;;;;;;;16.60;99.90;;;;;;5096991;28;19935;-82
2021/07/27 02:35:12;;;;;;;;;;;16.70;99.90;;;;;;5097166;28;19925;-74
2021/07/27 02:37:40;;;;;;;;;;;16.60;99.90;;;;;;5097036;28;19935;-82
2021/07/27 02:40:09;;;;;;;;;;;16.60;99.90;;;;;;5096957;28;19942;-82
2021/07/27 02:42:36;;;;;;;;;;;16.60;99.90;;;;;;5097189;28;20011;-83
2021/07/27 02:45:03;;;;;;;;;;;16.60;99.90;;;;;;5097055;28;19934;-82
2021/07/27 02:47:31;;;;;;;;;;;16.60;99.90;;;;;;5096962;28;19950;-82
2021/07/27 02:49:58;;;;;;;;;;;16.60;99.90;;;;;;5096820;28;19935;-81
2021/07/27 02:52:26;;;;;;;;;;;16.50;99.90;;;;;;5095833;28;19924;-82
2021/07/27 02:54:52;;;;;;;;;;;16.60;99.90;;;;;;5096963;28;19928;-82
2021/07/27 02:57:19;;;;;;;;;;;16.60;99.90;;;;;;5096888;28;19927;-81
2021/07/27 02:59:46;;;;;;;;;;;16.60;99.90;;;;;;5096843;28;19924;-82
2021/07/27 03:02:13;;;;;;;;;;;16.50;99.90;;;;;;5096683;28;20248;-83
2021/07/27 03:04:41;;;;;;;;;;;16.50;99.90;;;;;;5096486;28;19931;-82
2021/07/27 03:07:09;;;;;;;;;;;16.50;99.90;;;;;;5096329;28;19924;-82
2021/07/27 03:10:16;;;;;;;;;;;16.40;99.90;;;;;;5096434;28;20253;-81
2021/07/27 03:12:23;;;;;;;;;;;16.40;99.90;;;;;;5096120;28;19934;-82
2021/07/27 03:14:50;;;;;;;;;;;16.40;99.90;;;;;;5096441;28;19924;-82
2021/07/27 03:17:17;;;;;;;;;;;16.40;99.90;;;;;;5096246;28;19927;-82
2021/07/27 03:19:47;;;;;;;;;;;16.40;99.90;;;;;;5095473;28;20130;-82
2021/07/27 03:22:14;;;;;;;;;;;16.40;99.90;;;;;;5096374;28;19965;-82
2021/07/27 03:24:40;;;;;;;;;;;16.40;99.90;;;;;;5096358;28;20272;-82
2021/07/27 03:27:07;;;;;;;;;;;16.40;99.90;;;;;;5096239;28;20342;-82
2021/07/27 03:29:34;;;;;;;;;;;16.40;99.90;;;;;;5096188;28;20015;-82
2021/07/27 03:32:01;;;;;;;;;;;16.40;99.90;;;;;;5096089;28;20353;-82
2021/07/27 03:34:28;;;;;;;;;;;16.30;99.90;;;;;;5095918;28;19924;-83
2021/07/27 03:36:56;;;;;;;;;;;16.30;99.90;;;;;;5095909;28;19924;-82
2021/07/27 03:39:23;;;;;;;;;;;16.30;99.90;;;;;;5096067;28;19934;-82
2021/07/27 03:41:50;;;;;;;;;;;16.30;99.90;;;;;;5095861;28;20363;-83
2021/07/27 03:44:16;;;;;;;;;;;16.30;99.90;;;;;;5095738;28;19924;-82
2021/07/27 03:46:52;;;;;;;;;;;16.30;99.90;;;;;;5095772;28;19943;-82
2021/07/27 03:49:19;;;;;;;;;;;16.20;99.90;;;;;;5095972;28;19950;-82
2021/07/27 03:51:46;;;;;;;;;;;16.20;99.90;;;;;;5095759;28;20230;-83
2021/07/27 03:54:14;;;;;;;;;;;16.20;99.90;;;;;;5095385;28;20261;-82
2021/07/27 03:56:41;;;;;;;;;;;16.20;99.90;;;;;;5095408;28;19931;-83
2021/07/27 03:59:07;;;;;;;;;;;16.20;99.90;;;;;;5095590;28;19924;-83
2021/07/27 04:01:34;;;;;;;;;;;16.30;99.90;;;;;;5095429;28;20238;-83
2021/07/27 04:04:01;;;;;;;;;;;16.30;99.90;;;;;;5094749;28;20015;-83
2021/07/27 04:06:28;;;;;;;;;;;16.30;99.90;;;;;;5095656;28;19924;-83
2021/07/27 04:08:57;;;;;;;;;;;16.40;99.90;;;;;;5095424;28;20353;-83
2021/07/27 04:11:25;;;;;;;;;;;16.40;99.90;;;;;;5095393;28;19934;-83
2021/07/27 04:13:52;;;;;;;;;;;16.40;99.90;;;;;;5095256;28;19928;-83
2021/07/27 04:16:19;;;;;;;;;;;16.40;99.90;;;;;;5095229;28;20072;-83
2021/07/27 04:18:46;;;;;;;;;;;16.40;99.90;;;;;;5095543;28;20268;-83
2021/07/27 04:21:13;;;;;;;;;;;16.40;99.90;;;;;;5095480;28;19935;-83
2021/07/27 04:23:40;;;;;;;;;;;16.40;99.90;;;;;;5095317;28;19924;-83
2021/07/27 04:26:07;;;;;;;;;;;16.40;99.90;;;;;;5095353;28;19946;-83
2021/07/27 04:28:35;;;;;;;;;;;16.40;99.90;;;;;;5095056;28;20250;-83
2021/07/27 04:31:02;;;;;;;;;;;16.40;99.90;;;;;;5095100;28;19924;-82
2021/07/27 04:33:38;;;;;;;;;;;16.40;99.90;;;;;;5095293;28;19924;-82
2021/07/27 04:36:05;;;;;;;;;;;16.40;99.90;;;;;;5095079;28;19924;-82
2021/07/27 04:38:32;;;;;;;;;;;16.40;99.90;;;;;;5095029;28;19934;-82
2021/07/27 04:40:58;;;;;;;;;;;16.30;99.90;;;;;;5095050;28;19924;-82
2021/07/27 04:43:26;;;;;;;;;;;16.40;99.90;;;;;;5095122;28;19924;-83
2021/07/27 04:45:55;;;;;;;;;;;16.40;99.90;;;;;;5095217;28;19929;-83
2021/07/27 04:48:22;;;;;;;;;;;16.40;99.90;;;;;;5094976;28;19928;-83
2021/07/27 04:50:49;;;;;;;;;;;16.30;99.90;;;;;;5095077;28;20029;-83
2021/07/27 04:53:21;;;;;;;;;;;16.40;99.90;;;;;;5094662;28;19924;-83
2021/07/27 04:55:48;;;;;;;;;;;16.40;99.90;;;;;;5094856;28;19924;-83
2021/07/27 04:58:15;;;;;;;;;;;16.40;99.90;;;;;;5095086;28;19935;-83
2021/07/27 05:00:42;;;;;;;;;;;16.50;99.90;;;;;;5095032;28;19930;-83
2021/07/27 05:03:10;;;;;;;;;;;16.50;99.90;;;;;;5095003;28;19925;-82
2021/07/27 05:05:37;;;;;;;;;;;16.50;99.90;;;;;;5094819;28;19924;-82
2021/07/27 05:08:04;;;;;;;;;;;16.50;99.90;;;;;;5094764;28;19928;-83
2021/07/27 05:10:31;;;;;;;;;;;16.50;99.90;;;;;;5094761;28;20296;-83
2021/07/27 05:12:58;;;;;;;;;;;16.50;99.90;;;;;;5094701;28;20265;-83
2021/07/27 05:15:25;;;;;;;;;;;16.40;99.90;;;;;;5095518;28;19964;-83
2021/07/27 05:17:52;;;;;;;;;;;16.50;99.90;;;;;;5098591;28;19928;-83
2021/07/27 05:20:20;;;;;;;;;;;16.50;99.90;;;;;;5098568;28;19924;-85
2021/07/27 05:22:47;;;;;;;;;;;16.50;99.90;;;;;;5098485;28;20287;-85
2021/07/27 05:25:14;;;;;;;;;;;16.50;99.90;;;;;;5098332;28;20399;-84
2021/07/27 05:27:40;;;;;;;;;;;16.50;99.90;;;;;;5098450;28;19924;-84
2021/07/27 05:30:08;;;;;;;;;;;16.50;99.90;;;;;;5098366;28;19924;-84
2021/07/27 05:32:35;;;;;;;;;;;16.60;99.90;;;;;;5098423;28;20349;-84
2021/07/27 05:35:02;;;;;;;;;;;16.60;99.90;;;;;;5098169;28;19924;-84
2021/07/27 05:37:30;;;;;;;;;;;16.60;99.90;;;;;;5098232;28;19928;-84
2021/07/27 05:39:57;;;;;;;;;;;16.60;99.90;;;;;;5098174;28;19979;-84
2021/07/27 05:42:23;;;;;;;;;;;16.70;99.90;;;;;;5098350;28;19932;-84
2021/07/27 05:44:50;;;;;;;;;;;16.70;99.90;;;;;;5098193;28;20425;-84
2021/07/27 05:47:17;;;;;;;;;;;16.70;99.90;;;;;;5098103;28;19923;-84
2021/07/27 05:49:44;;;;;;;;;;;16.70;99.90;;;;;;5098122;28;19927;-84
2021/07/27 05:52:13;;;;;;;;;;;16.70;99.90;;;;;;5098058;28;19924;-85
2021/07/27 05:54:41;;;;;;;;;;;16.70;99.90;;;;;;5097631;28;20249;-84
2021/07/27 05:57:10;;;;;;;;;;;16.70;99.90;;;;;;5098124;28;19924;-83
2021/07/27 05:59:37;;;;;;;;;;;16.80;99.90;;;;;;5097764;28;19924;-83
2021/07/27 06:02:04;;;;;;;;;;;16.90;99.90;;;;;;5097753;28;19941;-83
2021/07/27 06:04:31;;;;;;;;;;;17.00;99.90;;;;;;5097973;28;19924;-83
2021/07/27 06:06:58;;;;;;;;;;;17.00;99.90;;;;;;5097877;28;20263;-83
2021/07/27 06:09:25;;;;;;;;;;;17.00;99.90;;;;;;5097647;28;20459;-83
2021/07/27 06:11:53;;;;;;;;;;;17.10;99.90;;;;;;5097613;28;20341;-83
2021/07/27 06:14:20;;;;;;;;;;;17.10;99.90;;;;;;5097444;28;19924;-84
2021/07/27 06:16:46;;;;;;;;;;;17.20;99.90;;;;;;5097476;28;19924;-84
2021/07/27 06:19:13;;;;;;;;;;;17.30;99.90;;;;;;5097486;28;19924;-84
2021/07/27 06:21:41;;;;;;;;;;;17.40;99.90;;;;;;5097246;28;19934;-84
2021/07/27 06:24:07;;;;;;;;;;;17.50;99.90;;;;;;5097270;28;19924;-85
2021/07/27 06:26:34;;;;;;;;;;;17.60;99.90;;;;;;5096918;28;20361;-84
2021/07/27 06:29:03;;;;;;;;;;;17.70;99.90;;;;;;5096842;28;20268;-84
2021/07/27 06:31:30;;;;;;;;;;;17.20;99.90;;;;;;5097218;28;19964;-84
2021/07/27 06:33:56;;;;;;;;;;;17.80;99.90;;;;;;5097117;28;19924;-84
2021/07/27 06:36:23;;;;;;;;;;;17.80;99.90;;;;;;5097146;28;19930;-84
2021/07/27 06:38:50;;;;;;;;;;;17.90;99.90;;;;;;5097088;28;19924;-83
2021/07/27 06:41:17;;;;;;;;;;;17.90;99.90;;;;;;5096979;28;19931;-84
2021/07/27 06:43:44;;;;;;;;;;;18.00;99.90;;;;;;5096854;28;19939;-84
2021/07/27 06:46:12;;;;;;;;;;;17.90;99.90;;;;;;5096849;28;19924;-84
2021/07/27 06:48:39;;;;;;;;;;;17.90;99.90;;;;;;5096961;28;19947;-84
2021/07/27 06:51:09;;;;;;;;;;;17.90;99.90;;;;;;5096758;28;19934;-84
2021/07/27 06:53:36;;;;;;;;;;;17.80;99.90;;;;;;5096497;28;19924;-84
2021/07/27 06:56:03;;;;;;;;;;;17.90;99.90;;;;;;5096889;28;20355;-83
2021/07/27 06:58:30;;;;;;;;;;;17.80;99.90;;;;;;5096830;28;19935;-84
2021/07/27 07:00:59;;;;;;;;;;;17.70;99.90;;;;;;5096832;28;19924;-84
2021/07/27 07:03:27;;;;;;;;;;;17.70;99.90;;;;;;5096590;28;19930;-84
2021/07/27 07:05:54;;;;;;;;;;;17.70;99.90;;;;;;5096547;28;19938;-84
2021/07/27 07:08:22;;;;;;;;;;;17.70;99.90;;;;;;5096616;28;19924;-84
2021/07/27 07:10:54;;;;;;;;;;;17.70;99.90;;;;;;5096749;28;19947;-83
2021/07/27 07:13:21;;;;;;;;;;;17.70;99.90;;;;;;5096635;28;19924;-84
2021/07/27 07:15:47;;;;;;;;;;;17.80;99.90;;;;;;5096284;28;19924;-84
2021/07/27 07:18:14;;;;;;;;;;;17.80;99.90;;;;;;5096607;28;20262;-84
2021/07/27 07:20:43;;;;;;;;;;;17.80;99.90;;;;;;5096568;28;20246;-84
2021/07/27 07:23:09;;;;;;;;;;;17.90;99.90;;;;;;5096197;28;19924;-84
2021/07/27 07:25:39;;;;;;;;;;;18.00;99.90;;;;;;5096027;28;19934;-84
2021/07/27 07:28:06;;;;;;;;;;;18.20;99.90;;;;;;5096295;28;20329;-84
2021/07/27 07:30:33;;;;;;;;;;;18.50;99.90;;;;;;5096150;28;20242;-83
2021/07/27 07:33:00;;;;;;;;;;;18.60;99.90;;;;;;5096261;28;19924;-83
2021/07/27 07:35:27;;;;;;;;;;;18.60;99.90;;;;;;5096027;28;19925;-83
2021/07/27 07:37:56;;;;;;;;;;;18.60;99.90;;;;;;5095802;28;19928;-83
2021/07/27 07:40:22;;;;;;;;;;;18.60;99.90;;;;;;5095986;28;19924;-83
2021/07/27 07:42:49;;;;;;;;;;;18.60;99.90;;;;;;5095933;28;19924;-83
2021/07/27 07:45:16;;;;;;;;;;;18.60;99.90;;;;;;5095705;28;19930;-83
2021/07/27 07:47:43;;;;;;;;;;;18.60;99.90;;;;;;5095925;28;20007;-83
2021/07/27 07:50:11;;;;;;;;;;;18.60;99.90;;;;;;5096034;28;19932;-84
2021/07/27 07:52:38;;;;;;;;;;;18.60;99.90;;;;;;5095493;28;20053;-84
2021/07/27 07:55:06;;;;;;;;;;;18.60;99.90;;;;;;5095449;28;19943;-84
2021/07/27 07:57:33;;;;;;;;;;;18.60;99.90;;;;;;5095692;28;19924;-84
2021/07/27 08:00:00;;;;;;;;;;;18.60;99.90;;;;;;5095822;28;19946;-84
2021/07/27 08:02:27;;;;;;;;;;;18.60;99.90;;;;;;5095722;28;20261;-84
2021/07/27 08:04:54;;;;;;;;;;;18.60;99.90;;;;;;5095460;28;19934;-83
2021/07/27 08:07:21;;;;;;;;;;;18.60;99.90;;;;;;5095307;28;20265;-84
2021/07/27 08:09:48;;;;;;;;;;;18.50;99.90;;;;;;5095261;28;19924;-84
2021/07/27 08:12:16;;;;;;;;;;;18.50;99.90;;;;;;5095267;28;19938;-84
2021/07/27 08:14:44;;;;;;;;;;;18.50;99.90;;;;;;5095203;28;19930;-84
2021/07/27 08:17:11;;;;;;;;;;;18.50;99.90;;;;;;5095445;28;19971;-84
2021/07/27 08:19:38;;;;;;;;;;;18.50;99.90;;;;;;5095478;28;19950;-84
2021/07/27 08:22:05;;;;;;;;;;;18.40;99.90;;;;;;5095286;28;20259;-83
2021/07/27 08:24:32;;;;;;;;;;;18.40;99.90;;;;;;5095216;28;20270;-83
2021/07/27 08:26:59;;;;;;;;;;;18.40;99.90;;;;;;5095556;28;20280;-83
2021/07/27 08:29:27;;;;;;;;;;;18.50;99.90;;;;;;5095207;28;20383;-84
2021/07/27 08:31:54;;;;;;;;;;;18.50;99.90;;;;;;5095116;28;19924;-84
2021/07/27 08:34:21;;;;;;;;;;;18.50;99.90;;;;;;5095354;28;19924;-84
2021/07/27 08:36:48;;;;;;;;;;;18.50;99.90;;;;;;5095070;28;19924;-83
2021/07/27 08:39:15;;;;;;;;;;;18.50;99.90;;;;;;5095145;28;19928;-84
2021/07/27 08:41:42;;;;;;;;;;;18.50;99.90;;;;;;5094945;28;19924;-84
2021/07/27 08:44:09;;;;;;;;;;;18.50;99.90;;;;;;5095019;28;19924;-85
2021/07/27 08:46:37;;;;;;;;;;;18.60;99.90;;;;;;5094122;28;19935;-85
2021/07/27 08:49:04;;;;;;;;;;;18.60;99.90;;;;;;5094851;28;19934;-84
2021/07/27 08:51:31;;;;;;;;;;;18.60;99.90;;;;;;5097822;28;19934;-85
2021/07/27 08:53:58;;;;;;;;;;;18.60;99.90;;;;;;5098922;28;19973;-84
2021/07/27 08:56:25;;;;;;;;;;;18.60;99.90;;;;;;5099079;28;20363;-83
2021/07/27 08:58:51;;;;;;;;;;;18.60;99.90;;;;;;5099014;28;20251;-79
2021/07/27 09:01:23;;;;;;;;;;;18.60;99.90;;;;;;5098894;28;19942;-76
2021/07/27 09:03:51;;;;;;;;;;;18.70;99.90;;;;;;5099104;28;19924;-77
2021/07/27 09:06:21;;;;;;;;;;;18.60;99.90;;;;;;5098956;28;19967;-77
2021/07/27 09:08:47;;;;;;;;;;;18.60;99.90;;;;;;5098960;28;19975;-77
2021/07/27 09:11:16;;;;;;;;;;;18.60;99.90;;;;;;5099090;28;19924;-77
2021/07/27 09:13:51;;;;;;;;;;;18.50;99.90;;;;;;5098750;28;20350;-77
2021/07/27 09:16:17;;;;;;;;;;;18.60;99.90;;;;;;5098159;28;19930;-77
2021/07/27 09:18:44;;;;;;;;;;;18.60;99.90;;;;;;5098578;28;19924;-76
2021/07/27 09:21:12;;;;;;;;;;;18.60;99.90;;;;;;5098657;28;19923;-77
2021/07/27 09:23:41;;;;;;;;;;;18.60;99.90;;;;;;5097272;28;20261;-77
2021/07/27 09:26:08;;;;;;;;;;;18.60;99.90;;;;;;5098478;28;19935;-77
2021/07/27 09:28:34;;;;;;;;;;;18.60;99.90;;;;;;5098186;28;19934;-76
2021/07/27 09:31:02;;;;;;;;;;;18.60;99.90;;;;;;5098538;28;19989;-77
2021/07/27 09:33:29;;;;;;;;;;;18.70;99.90;;;;;;5098474;28;20057;-77
2021/07/27 09:35:56;;;;;;;;;;;18.70;99.90;;;;;;5098263;28;20041;-77
2021/07/27 09:38:24;;;;;;;;;;;18.70;99.90;;;;;;5098435;28;19928;-77
2021/07/27 09:40:51;;;;;;;;;;;18.80;99.90;;;;;;5098255;28;19924;-76
2021/07/27 09:43:19;;;;;;;;;;;18.80;99.90;;;;;;5098126;28;19934;-76
2021/07/27 09:45:46;;;;;;;;;;;18.80;99.90;;;;;;5098131;28;19928;-76
2021/07/27 09:48:14;;;;;;;;;;;18.90;99.90;;;;;;5098138;28;19935;-76
2021/07/27 09:50:40;;;;;;;;;;;18.90;99.90;;;;;;5098033;28;19930;-76
2021/07/27 09:53:07;;;;;;;;;;;19.00;99.90;;;;;;5098103;28;19924;-76
2021/07/27 09:55:37;;;;;;;;;;;19.00;99.90;;;;;;5097873;28;19924;-77
2021/07/27 09:58:04;;;;;;;;;;;19.00;99.90;;;;;;5098140;28;19924;-77
2021/07/27 10:00:31;;;;;;;;;;;19.10;99.90;;;;;;5097881;28;19925;-76
2021/07/27 10:02:58;;;;;;;;;;;19.10;99.90;;;;;;5097784;28;19934;-76
2021/07/27 10:05:25;;;;;;;;;;;19.10;99.90;;;;;;5097909;28;19924;-77
2021/07/27 10:07:55;;;;;;;;;;;19.10;99.90;;;;;;5097947;28;19928;-76
2021/07/27 10:10:33;;;;;;;;;;;19.20;99.90;;;;;;5097811;28;19939;-77
2021/07/27 10:13:06;;;;;;;;;;;19.20;99.90;;;;;;5097694;28;19931;-76
2021/07/27 10:15:38;;;;;;;;;;;19.30;99.90;;;;;;5097620;28;19930;-77
2021/07/27 10:18:04;;;;;;;;;;;19.40;99.90;;;;;;5097790;28;19934;-76
2021/07/27 10:20:31;;;;;;;;;;;19.50;99.90;;;;;;5097699;28;19924;-77
2021/07/27 10:22:58;;;;;;;;;;;19.60;99.90;;;;;;5097623;28;19924;-77
2021/07/27 10:25:25;;;;;;;;;;;19.60;99.90;;;;;;5097486;28;20253;-77
2021/07/27 10:27:53;;;;;;;;;;;19.70;99.90;;;;;;5097197;28;19928;-76
2021/07/27 10:30:31;;;;;;;;;;;19.80;99.90;;;;;;5097266;28;19979;-76
2021/07/27 10:32:58;;;;;;;;;;;19.80;99.90;;;;;;5097486;28;19924;-76
2021/07/27 10:35:26;;;;;;;;;;;19.90;99.90;;;;;;5097229;28;20265;-76
2021/07/27 10:37:52;;;;;;;;;;;19.90;99.90;;;;;;5097131;28;19924;-76
2021/07/27 10:40:27;;;;;;;;;;;20.10;99.90;;;;;;5097083;28;19928;-76
2021/07/27 10:42:54;;;;;;;;;;;20.10;99.90;;;;;;5097105;28;19924;-76
2021/07/27 10:45:21;;;;;;;;;;;20.20;99.90;;;;;;5097172;28;19924;-76
2021/07/27 10:47:50;;;;;;;;;;;20.30;99.90;;;;;;5097227;28;19934;-77
2021/07/27 10:50:17;;;;;;;;;;;20.50;99.90;;;;;;5096946;28;19924;-77
2021/07/27 10:52:44;;;;;;;;;;;20.50;99.90;;;;;;5096638;28;19924;-77
2021/07/27 10:55:11;;;;;;;;;;;20.60;99.90;;;;;;5096584;28;19977;-77
2021/07/27 10:57:39;;;;;;;;;;;20.80;99.90;;;;;;5097337;28;20311;-76
2021/07/27 11:00:06;;;;;;;;;;;20.80;99.90;;;;;;5096771;28;19924;-76
2021/07/27 11:02:33;;;;;;;;;;;20.80;99.90;;;;;;5095640;28;20346;-76
2021/07/27 11:05:01;;;;;;;;;;;20.80;99.90;;;;;;5095944;28;19938;-77
2021/07/27 11:07:32;;;;;;;;;;;20.80;99.90;;;;;;5096694;28;19935;-77
2021/07/27 11:09:59;;;;;;;;;;;20.80;99.90;;;;;;5096487;28;20352;-78
2021/07/27 11:12:33;;;;;;;;;;;20.80;99.90;;;;;;5096363;28;19924;-77
2021/07/27 11:15:10;;;;;;;;;;;20.90;99.90;;;;;;5096059;28;19935;-77
2021/07/27 11:17:37;;;;;;;;;;;21.00;99.90;;;;;;5096485;28;19935;-77
2021/07/27 11:20:06;;;;;;;;;;;21.10;99.90;;;;;;5096381;28;19940;-78
2021/07/27 11:22:33;;;;;;;;;;;21.20;99.90;;;;;;5097926;28;19924;-79
2021/07/27 11:25:00;;;;;;;;;;;21.20;99.90;;;;;;5096421;28;19924;-78
2021/07/27 11:27:29;;;;;;;;;;;21.10;99.90;;;;;;5097426;28;19950;-78
2021/07/27 11:29:57;;;;;;;;;;;20.90;99.90;;;;;;5096295;28;19928;-81
2021/07/27 11:32:26;;;;;;;;;;;20.90;99.90;;;;;;5096041;28;19928;-76
2021/07/27 11:34:59;;;;;;;;;;;20.80;99.90;;;;;;5096040;28;20322;-78
2021/07/27 11:37:27;;;;;;;;;;;20.90;99.90;;;;;;5095925;28;19924;-78
2021/07/27 11:39:55;;;;;;;;;;;20.90;99.90;;;;;;5095940;28;19924;-78
2021/07/27 11:42:28;;;;;;;;;;;21.00;99.90;;;;;;5095943;28;20327;-78
2021/07/27 11:44:56;;;;;;;;;;;21.00;99.90;;;;;;5095975;28;19935;-78
2021/07/27 11:47:23;;;;;;;;;;;21.10;99.90;;;;;;5095693;28;20006;-77
2021/07/27 11:49:56;;;;;;;;;;;21.20;99.90;;;;;;5095756;28;20265;-78
2021/07/27 11:52:28;;;;;;;;;;;21.30;99.90;;;;;;5095643;28;20395;-78
2021/07/27 11:55:02;;;;;;;;;;;21.40;99.90;;;;;;5095736;28;19950;-79
2021/07/27 11:57:29;;;;;;;;;;;21.50;99.90;;;;;;5095636;28;19924;-80
2021/07/27 12:00:11;;;;;;;;;;;21.60;99.90;;;;;;5095725;28;19957;-80
2021/07/27 12:02:38;;;;;;;;;;;21.70;99.90;;;;;;5095549;28;19924;-80
2021/07/27 12:05:05;;;;;;;;;;;21.70;99.90;;;;;;5095390;28;19934;-81
2021/07/27 12:07:34;;;;;;;;;;;21.70;99.90;;;;;;5095521;28;19930;-80
2021/07/27 12:10:01;;;;;;;;;;;21.70;99.90;;;;;;5095626;28;19997;-81
2021/07/27 12:12:28;;;;;;;;;;;21.70;99.90;;;;;;5095384;28;19925;-81
2021/07/27 12:14:54;;;;;;;;;;;21.70;99.90;;;;;;5095359;28;19923;-80
2021/07/27 12:17:21;;;;;;;;;;;21.70;99.90;;;;;;5095340;28;19957;-80
2021/07/27 12:19:48;;;;;;;;;;;21.70;99.90;;;;;;5095410;28;20371;-80
2021/07/27 12:22:15;;;;;;;;;;;21.80;99.90;;;;;;5095237;28;19924;-80
2021/07/27 12:24:43;;;;;;;;;;;21.90;99.90;;;;;;5094700;28;19930;-80
2021/07/27 12:27:10;;;;;;;;;;;22.00;99.90;;;;;;5095076;28;19924;-80
2021/07/27 12:29:37;;;;;;;;;;;22.00;99.90;;;;;;5095264;28;19928;-80
2021/07/27 12:32:04;;;;;;;;;;;22.10;99.90;;;;;;5095443;28;19924;-80
2021/07/27 12:34:31;;;;;;;;;;;22.10;99.90;;;;;;5095231;28;20256;-80
2021/07/27 12:36:58;;;;;;;;;;;22.10;99.90;;;;;;5095036;28;19924;-80
2021/07/27 12:39:25;;;;;;;;;;;22.20;99.90;;;;;;5095175;28;20460;-80
2021/07/27 12:41:53;;;;;;;;;;;22.20;99.90;;;;;;5095270;28;20281;-80
2021/07/27 12:44:20;;;;;;;;;;;22.20;99.90;;;;;;5095000;28;19924;-80
2021/07/27 12:46:47;;;;;;;;;;;22.20;99.90;;;;;;5095080;28;19928;-80
2021/07/27 12:49:16;;;;;;;;;;;22.30;99.90;;;;;;5095177;28;19924;-80
2021/07/27 12:51:42;;;;;;;;;;;22.40;99.90;;;;;;5095028;28;19971;-79
2021/07/27 12:54:09;;;;;;;;;;;22.30;99.90;;;;;;5095016;28;19934;-80
2021/07/27 12:56:37;;;;;;;;;;;22.40;99.90;;;;;;5095084;28;19924;-81
2021/07/27 12:59:06;;;;;;;;;;;22.30;99.90;;;;;;5094946;28;19963;-81
2021/07/27 13:01:33;;;;;;;;;;;22.20;99.90;;;;;;5095009;28;19931;-81
2021/07/27 13:04:00;;;;;;;;;;;22.20;99.90;;;;;;5094980;28;20482;-80
2021/07/27 13:06:26;;;;;;;;;;;21.90;99.90;;;;;;5094784;28;20273;-81
2021/07/27 13:08:53;;;;;;;;;;;21.60;99.90;;;;;;5094954;28;20272;-81
2021/07/27 13:11:20;;;;;;;;;;;21.40;99.90;;;;;;5094869;28;19924;-82
2021/07/27 13:13:47;;;;;;;;;;;21.00;99.90;;;;;;5095011;28;19938;-81
2021/07/27 13:16:17;;;;;;;;;;;20.80;99.90;;;;;;5094774;28;19924;-81
2021/07/27 13:18:44;;;;;;;;;;;20.60;99.90;;;;;;5094718;28;19931;-82
2021/07/27 13:21:11;;;;;;;;;;;20.50;99.90;;;;;;5094743;28;19924;-83
2021/07/27 13:23:39;;;;;;;;;;;20.40;99.90;;;;;;5094710;28;19935;-82
2021/07/27 13:26:06;;;;;;;;;;;20.30;99.90;;;;;;5094738;28;19924;-82
2021/07/27 13:28:33;;;;;;;;;;;20.20;99.90;;;;;;5094450;28;20276;-79
2021/07/27 13:31:00;;;;;;;;;;;20.10;99.90;;;;;;5094791;28;20292;-81
2021/07/27 13:33:28;;;;;;;;;;;20.00;99.90;;;;;;5093637;28;19924;-81
2021/07/27 13:35:55;;;;;;;;;;;19.90;99.90;;;;;;5094476;28;19935;-81
2021/07/27 13:38:22;;;;;;;;;;;19.90;99.90;;;;;;5098170;28;19938;-81
2021/07/27 13:40:48;;;;;;;;;;;19.80;99.90;;;;;;5098187;28;19924;-82
2021/07/27 13:43:15;;;;;;;;;;;19.70;99.90;;;;;;5098522;28;19935;-76
2021/07/27 13:45:42;;;;;;;;;;;19.70;99.90;;;;;;5097990;28;20281;-78
2021/07/27 13:48:09;;;;;;;;;;;19.60;99.90;;;;;;5098100;28;20367;-80
2021/07/27 13:50:37;;;;;;;;;;;19.60;99.90;;;;;;5098002;28;19924;-80
2021/07/27 13:53:04;;;;;;;;;;;19.60;99.90;;;;;;5097726;28;19928;-80
2021/07/27 13:55:31;;;;;;;;;;;19.60;99.90;;;;;;5097927;28;20255;-80
2021/07/27 13:57:58;;;;;;;;;;;19.60;99.90;;;;;;5098101;28;19934;-81
2021/07/27 14:00:25;;;;;;;;;;;19.70;99.90;;;;;;5097965;28;19935;-75
2021/07/27 14:02:52;;;;;;;;;;;19.70;99.90;;;;;;5097878;28;19938;-81
2021/07/27 14:05:22;;;;;;;;;;;19.60;99.90;;;;;;5098144;28;19938;-81
2021/07/27 14:07:50;;;;;;;;;;;19.60;99.90;;;;;;5097567;28;20234;-81
2021/07/27 14:10:17;;;;;;;;;;;19.60;99.90;;;;;;5097646;28;19932;-82
2021/07/27 14:12:43;;;;;;;;;;;19.60;99.90;;;;;;5097619;28;20330;-81
2021/07/27 14:15:11;;;;;;;;;;;19.50;99.90;;;;;;5097489;28;19924;-82
2021/07/27 14:17:38;;;;;;;;;;;19.60;99.90;;;;;;5097490;28;19930;-82
2021/07/27 14:20:06;;;;;;;;;;;19.60;99.90;;;;;;5097462;28;20389;-82
2021/07/27 14:22:33;;;;;;;;;;;19.70;99.90;;;;;;5097436;28;20337;-82
2021/07/27 14:25:01;;;;;;;;;;;19.70;99.90;;;;;;5097601;28;19926;-82
2021/07/27 14:27:28;;;;;;;;;;;19.70;99.90;;;;;;5097380;28;19924;-82
2021/07/27 14:29:55;;;;;;;;;;;19.70;99.90;;;;;;5097362;28;20369;-82
2021/07/27 14:32:22;;;;;;;;;;;19.80;99.90;;;;;;5096915;28;20161;-81
2021/07/27 14:34:48;;;;;;;;;;;19.80;99.90;;;;;;5096259;28;19928;-82